sensor_id;sensor_type;location;lat;lon;timestamp;pressure;altitude;pressure_sealevel;temperature;humidity
8162;BME280;16778;48.154;15.094;2024-02-28T00:02:01;98532.72;;;6.21;100.00
8162;BME280;16778;48.154;15.094;2024-02-28T00:04:26;98534.34;;;6.16;100.00
8162;BME280;16778;48.154;15.094;2024-02-28T00:06:52;98546.75;;;6.10;100.00
8162;BME280;16778;48.154;15.094;2024-02-28T00:09:18;98537.56;;;6.05;100.00
8162;BME280;16778;48.154;15.094;2024-02-28T00:11:45;98550.41;;;6.03;100.00
8162;BME280;16778;48.154;15.094;2024-02-28T00:14:14;98559.06;;;5.98;100.00
8162;BME280;16778;48.154;15.094;2024-02-28T00:16:44;98572.28;;;5.93;100.00
8162;BME280;16778;48.154;15.094;2024-02-28T00:19:11;98578.72;;;5.92;100.00
8162;BME280;16778;48.154;15.094;2024-02-28T00:21:40;98578.53;;;5.94;100.00
8162;BME280;16778;48.154;15.094;2024-02-28T00:24:09;98577.88;;;5.92;100.00
8162;BME280;16778;48.154;15.094;2024-02-28T00:26:39;98580.13;;;5.88;100.00
8162;BME280;16778;48.154;15.094;2024-02-28T00:29:05;98580.84;;;5.82;100.00
8162;BME280;16778;48.154;15.094;2024-02-28T00:31:31;98585.22;;;5.83;100.00
8162;BME280;16778;48.154;15.094;2024-02-28T00:33:57;98586.63;;;5.79;100.00
8162;BME280;16778;48.154;15.094;2024-02-28T00:36:23;98590.75;;;5.75;100.00
8162;BME280;16778;48.154;15.094;2024-02-28T00:38:48;98591.03;;;5.65;100.00
8162;BME280;16778;48.154;15.094;2024-02-28T00:41:14;98588.25;;;5.59;100.00
8162;BME280;16778;48.154;15.094;2024-02-28T00:43:40;98584.84;;;5.50;100.00
8162;BME280;16778;48.154;15.094;2024-02-28T00:46:06;98586.44;;;5.45;100.00
8162;BME280;16778;48.154;15.094;2024-02-28T00:48:40;98586.84;;;5.42;100.00
8162;BME280;16778;48.154;15.094;2024-02-28T00:51:08;98588.03;;;5.39;100.00
8162;BME280;16778;48.154;15.094;2024-02-28T00:53:34;98594.00;;;5.35;100.00
8162;BME280;16778;48.154;15.094;2024-02-28T00:56:00;98592.69;;;5.31;100.00
8162;BME280;16778;48.154;15.094;2024-02-28T00:58:26;98601.72;;;5.23;100.00
8162;BME280;16778;48.154;15.094;2024-02-28T01:00:53;98602.28;;;5.18;100.00
8162;BME280;16778;48.154;15.094;2024-02-28T01:03:19;98603.66;;;5.14;100.00
8162;BME280;16778;48.154;15.094;2024-02-28T01:05:45;98603.03;;;5.12;100.00
8162;BME280;16778;48.154;15.094;2024-02-28T01:08:12;98605.34;;;5.15;100.00
8162;BME280;16778;48.154;15.094;2024-02-28T01:10:37;98603.66;;;5.14;100.00
8162;BME280;16778;48.154;15.094;2024-02-28T01:13:04;98608.03;;;5.15;100.00
8162;BME280;16778;48.154;15.094;2024-02-28T01:15:29;98618.91;;;5.07;100.00
8162;BME280;16778;48.154;15.094;2024-02-28T01:17:55;98617.13;;;5.00;100.00
8162;BME280;16778;48.154;15.094;2024-02-28T01:20:21;98614.84;;;4.97;100.00
8162;BME280;16778;48.154;15.094;2024-02-28T01:22:47;98618.91;;;4.93;100.00
8162;BME280;16778;48.154;15.094;2024-02-28T01:25:13;98617.59;;;4.89;100.00
8162;BME280;16778;48.154;15.094;2024-02-28T01:27:39;98625.22;;;4.85;100.00
8162;BME280;16778;48.154;15.094;2024-02-28T01:30:06;98632.81;;;4.82;100.00
8162;BME280;16778;48.154;15.094;2024-02-28T01:32:32;98633.44;;;4.84;100.00
8162;BME280;16778;48.154;15.094;2024-02-28T01:34:57;98626.22;;;4.84;100.00
8162;BME280;16778;48.154;15.094;2024-02-28T01:37:24;98635.97;;;4.85;100.00
8162;BME280;16778;48.154;15.094;2024-02-28T01:39:49;98632.91;;;4.88;100.00
8162;BME280;16778;48.154;15.094;2024-02-28T01:42:15;98647.53;;;4.86;100.00
8162;BME280;16778;48.154;15.094;2024-02-28T01:44:47;98643.22;;;4.85;100.00
8162;BME280;16778;48.154;15.094;2024-02-28T01:47:15;98631.59;;;4.84;100.00
8162;BME280;16778;48.154;15.094;2024-02-28T01:49:42;98638.31;;;4.88;100.00
8162;BME280;16778;48.154;15.094;2024-02-28T01:52:09;98640.78;;;4.90;100.00
8162;BME280;16778;48.154;15.094;2024-02-28T01:54:38;98649.22;;;4.87;100.00
8162;BME280;16778;48.154;15.094;2024-02-28T01:57:05;98643.56;;;4.82;100.00
8162;BME280;16778;48.154;15.094;2024-02-28T01:59:32;98652.28;;;4.84;100.00
8162;BME280;16778;48.154;15.094;2024-02-28T02:02:00;98664.38;;;4.88;100.00
8162;BME280;16778;48.154;15.094;2024-02-28T02:04:26;98662.03;;;4.85;100.00
8162;BME280;16778;48.154;15.094;2024-02-28T02:06:52;98653.78;;;4.86;100.00
8162;BME280;16778;48.154;15.094;2024-02-28T02:09:23;98664.00;;;4.91;100.00
8162;BME280;16778;48.154;15.094;2024-02-28T02:11:49;98671.88;;;4.92;100.00
8162;BME280;16778;48.154;15.094;2024-02-28T02:14:15;98669.91;;;4.86;100.00
8162;BME280;16778;48.154;15.094;2024-02-28T02:16:41;98662.88;;;4.85;100.00
8162;BME280;16778;48.154;15.094;2024-02-28T02:19:08;98679.09;;;4.77;100.00
8162;BME280;16778;48.154;15.094;2024-02-28T02:21:41;98677.16;;;4.86;100.00
8162;BME280;16778;48.154;15.094;2024-02-28T02:24:09;98667.13;;;4.94;100.00
8162;BME280;16778;48.154;15.094;2024-02-28T02:26:35;98679.59;;;4.95;100.00
8162;BME280;16778;48.154;15.094;2024-02-28T02:29:01;98666.34;;;4.94;100.00
8162;BME280;16778;48.154;15.094;2024-02-28T02:31:26;98673.94;;;4.90;100.00
8162;BME280;16778;48.154;15.094;2024-02-28T02:33:52;98675.84;;;4.82;100.00
8162;BME280;16778;48.154;15.094;2024-02-28T02:36:18;98697.66;;;4.87;100.00
8162;BME280;16778;48.154;15.094;2024-02-28T02:38:44;98677.81;;;4.88;100.00
8162;BME280;16778;48.154;15.094;2024-02-28T02:41:10;98681.34;;;4.88;100.00
8162;BME280;16778;48.154;15.094;2024-02-28T02:43:35;98698.69;;;4.86;100.00
8162;BME280;16778;48.154;15.094;2024-02-28T02:46:01;98696.75;;;4.80;100.00
8162;BME280;16778;48.154;15.094;2024-02-28T02:48:27;98688.84;;;4.78;100.00
8162;BME280;16778;48.154;15.094;2024-02-28T02:50:53;98693.94;;;4.73;100.00
8162;BME280;16778;48.154;15.094;2024-02-28T02:53:19;98682.97;;;4.75;100.00
8162;BME280;16778;48.154;15.094;2024-02-28T02:55:45;98692.56;;;4.77;100.00
8162;BME280;16778;48.154;15.094;2024-02-28T02:58:10;98711.91;;;4.73;100.00
8162;BME280;16778;48.154;15.094;2024-02-28T03:00:36;98712.94;;;4.72;100.00
8162;BME280;16778;48.154;15.094;2024-02-28T03:03:02;98697.09;;;4.77;100.00
8162;BME280;16778;48.154;15.094;2024-02-28T03:05:28;98723.31;;;4.75;100.00
8162;BME280;16778;48.154;15.094;2024-02-28T03:07:54;98731.97;;;4.70;100.00
8162;BME280;16778;48.154;15.094;2024-02-28T03:10:20;98735.66;;;4.69;100.00
8162;BME280;16778;48.154;15.094;2024-02-28T03:12:46;98745.59;;;4.68;100.00
8162;BME280;16778;48.154;15.094;2024-02-28T03:15:11;98741.16;;;4.76;100.00
8162;BME280;16778;48.154;15.094;2024-02-28T03:17:37;98740.44;;;4.82;100.00
8162;BME280;16778;48.154;15.094;2024-02-28T03:20:03;98748.66;;;4.80;100.00
8162;BME280;16778;48.154;15.094;2024-02-28T03:22:29;98760.63;;;4.78;100.00
8162;BME280;16778;48.154;15.094;2024-02-28T03:24:55;98760.63;;;4.78;100.00
8162;BME280;16778;48.154;15.094;2024-02-28T03:27:21;98748.88;;;4.79;100.00
8162;BME280;16778;48.154;15.094;2024-02-28T03:29:46;98752.75;;;4.76;100.00
8162;BME280;16778;48.154;15.094;2024-02-28T03:32:12;98759.34;;;4.74;100.00
8162;BME280;16778;48.154;15.094;2024-02-28T03:34:38;98760.91;;;4.68;100.00
8162;BME280;16778;48.154;15.094;2024-02-28T03:37:04;98753.84;;;4.67;100.00
8162;BME280;16778;48.154;15.094;2024-02-28T03:39:30;98749.00;;;4.62;100.00
8162;BME280;16778;48.154;15.094;2024-02-28T03:41:55;98744.28;;;4.64;100.00
8162;BME280;16778;48.154;15.094;2024-02-28T03:44:22;98754.03;;;4.65;100.00
8162;BME280;16778;48.154;15.094;2024-02-28T03:46:48;98753.91;;;4.59;100.00
8162;BME280;16778;48.154;15.094;2024-02-28T03:49:13;98757.31;;;4.53;100.00
8162;BME280;16778;48.154;15.094;2024-02-28T03:51:42;98751.75;;;4.54;100.00
8162;BME280;16778;48.154;15.094;2024-02-28T03:54:08;98760.97;;;4.60;100.00
8162;BME280;16778;48.154;15.094;2024-02-28T03:56:34;98758.63;;;4.57;100.00
8162;BME280;16778;48.154;15.094;2024-02-28T03:59:03;98767.69;;;4.56;100.00
8162;BME280;16778;48.154;15.094;2024-02-28T04:01:30;98774.47;;;4.52;100.00
8162;BME280;16778;48.154;15.094;2024-02-28T04:03:56;98766.56;;;4.50;100.00
8162;BME280;16778;48.154;15.094;2024-02-28T04:06:22;98772.78;;;4.51;100.00
8162;BME280;16778;48.154;15.094;2024-02-28T04:08:48;98772.44;;;4.54;100.00
8162;BME280;16778;48.154;15.094;2024-02-28T04:11:13;98778.66;;;4.54;100.00
8162;BME280;16778;48.154;15.094;2024-02-28T04:13:40;98789.06;;;4.57;100.00
8162;BME280;16778;48.154;15.094;2024-02-28T04:16:08;98781.56;;;4.67;100.00
8162;BME280;16778;48.154;15.094;2024-02-28T04:18:34;98779.38;;;4.71;100.00
8162;BME280;16778;48.154;15.094;2024-02-28T04:20:59;98781.22;;;4.71;100.00
8162;BME280;16778;48.154;15.094;2024-02-28T04:23:25;98780.56;;;4.68;100.00
8162;BME280;16778;48.154;15.094;2024-02-28T04:25:51;98786.13;;;4.67;100.00
8162;BME280;16778;48.154;15.094;2024-02-28T04:28:17;98792.16;;;4.69;100.00
8162;BME280;16778;48.154;15.094;2024-02-28T04:30:43;98794.19;;;4.67;100.00
8162;BME280;16778;48.154;15.094;2024-02-28T04:33:09;98787.59;;;4.69;100.00
8162;BME280;16778;48.154;15.094;2024-02-28T04:35:35;98779.03;;;4.74;100.00
8162;BME280;16778;48.154;15.094;2024-02-28T04:38:01;98776.13;;;4.76;100.00
8162;BME280;16778;48.154;15.094;2024-02-28T04:40:26;98781.03;;;4.72;100.00
8162;BME280;16778;48.154;15.094;2024-02-28T04:42:52;98788.25;;;4.72;100.00
8162;BME280;16778;48.154;15.094;2024-02-28T04:45:18;98792.81;;;4.71;100.00
8162;BME280;16778;48.154;15.094;2024-02-28T04:47:44;98789.78;;;4.74;100.00
8162;BME280;16778;48.154;15.094;2024-02-28T04:50:10;98799.78;;;4.80;100.00
8162;BME280;16778;48.154;15.094;2024-02-28T04:52:36;98794.91;;;4.84;100.00
8162;BME280;16778;48.154;15.094;2024-02-28T04:55:02;98803.16;;;4.82;100.00
8162;BME280;16778;48.154;15.094;2024-02-28T04:57:28;98798.78;;;4.81;100.00
8162;BME280;16778;48.154;15.094;2024-02-28T04:59:54;98789.88;;;4.81;100.00
8162;BME280;16778;48.154;15.094;2024-02-28T05:02:20;98794.81;;;4.77;100.00
8162;BME280;16778;48.154;15.094;2024-02-28T05:04:47;98799.69;;;4.74;100.00
8162;BME280;16778;48.154;15.094;2024-02-28T05:07:13;98799.50;;;4.75;100.00
8162;BME280;16778;48.154;15.094;2024-02-28T05:09:39;98802.69;;;4.79;100.00
8162;BME280;16778;48.154;15.094;2024-02-28T05:12:05;98800.78;;;4.87;100.00
8162;BME280;16778;48.154;15.094;2024-02-28T05:14:31;98805.59;;;4.92;100.00
8162;BME280;16778;48.154;15.094;2024-02-28T05:16:57;98806.44;;;4.92;100.00
8162;BME280;16778;48.154;15.094;2024-02-28T05:19:23;98811.66;;;4.94;100.00
8162;BME280;16778;48.154;15.094;2024-02-28T05:21:49;98805.91;;;4.97;100.00
8162;BME280;16778;48.154;15.094;2024-02-28T05:24:15;98816.50;;;4.98;100.00
8162;BME280;16778;48.154;15.094;2024-02-28T05:26:40;98824.69;;;5.05;100.00
8162;BME280;16778;48.154;15.094;2024-02-28T05:29:06;98821.09;;;5.12;100.00
8162;BME280;16778;48.154;15.094;2024-02-28T05:31:32;98826.03;;;5.23;100.00
8162;BME280;16778;48.154;15.094;2024-02-28T05:33:59;98824.47;;;5.29;100.00
8162;BME280;16778;48.154;15.094;2024-02-28T05:36:28;98828.47;;;5.33;100.00
8162;BME280;16778;48.154;15.094;2024-02-28T05:38:56;98828.47;;;5.33;100.00
8162;BME280;16778;48.154;15.094;2024-02-28T05:41:23;98831.97;;;5.34;100.00
8162;BME280;16778;48.154;15.094;2024-02-28T05:43:49;98833.19;;;5.31;100.00
8162;BME280;16778;48.154;15.094;2024-02-28T05:46:16;98835.53;;;5.34;100.00
8162;BME280;16778;48.154;15.094;2024-02-28T05:48:43;98840.91;;;5.34;100.00
8162;BME280;16778;48.154;15.094;2024-02-28T05:51:10;98840.91;;;5.34;100.00
8162;BME280;16778;48.154;15.094;2024-02-28T05:53:36;98849.63;;;5.36;100.00
8162;BME280;16778;48.154;15.094;2024-02-28T05:56:02;98859.59;;;5.36;100.00
8162;BME280;16778;48.154;15.094;2024-02-28T05:58:29;98846.78;;;5.38;100.00
8162;BME280;16778;48.154;15.094;2024-02-28T06:00:55;98854.00;;;5.37;100.00
8162;BME280;16778;48.154;15.094;2024-02-28T06:03:21;98850.31;;;5.38;100.00
8162;BME280;16778;48.154;15.094;2024-02-28T06:05:46;98861.09;;;5.38;100.00
8162;BME280;16778;48.154;15.094;2024-02-28T06:08:13;98862.75;;;5.39;100.00
8162;BME280;16778;48.154;15.094;2024-02-28T06:10:38;98864.41;;;5.40;100.00
8162;BME280;16778;48.154;15.094;2024-02-28T06:13:04;98872.16;;;5.43;100.00
8162;BME280;16778;48.154;15.094;2024-02-28T06:15:30;98876.31;;;5.46;100.00
8162;BME280;16778;48.154;15.094;2024-02-28T06:17:59;98875.97;;;5.49;100.00
8162;BME280;16778;48.154;15.094;2024-02-28T06:20:28;98890.91;;;5.51;100.00
8162;BME280;16778;48.154;15.094;2024-02-28T06:22:54;98893.25;;;5.54;100.00
8162;BME280;16778;48.154;15.094;2024-02-28T06:25:19;98892.69;;;5.59;100.00
8162;BME280;16778;48.154;15.094;2024-02-28T06:27:48;98897.56;;;5.63;100.00
8162;BME280;16778;48.154;15.094;2024-02-28T06:30:15;98899.69;;;5.68;100.00
8162;BME280;16778;48.154;15.094;2024-02-28T06:32:42;98895.63;;;5.72;100.00
8162;BME280;16778;48.154;15.094;2024-02-28T06:35:09;98901.28;;;5.77;100.00
8162;BME280;16778;48.154;15.094;2024-02-28T06:37:35;98901.09;;;5.78;100.00
8162;BME280;16778;48.154;15.094;2024-02-28T06:40:03;98897.22;;;5.81;100.00
8162;BME280;16778;48.154;15.094;2024-02-28T06:42:35;98900.38;;;5.84;100.00
8162;BME280;16778;48.154;15.094;2024-02-28T06:45:03;98910.44;;;5.91;100.00
8162;BME280;16778;48.154;15.094;2024-02-28T06:47:30;98915.94;;;5.97;100.00
8162;BME280;16778;48.154;15.094;2024-02-28T06:49:58;98917.91;;;6.03;100.00
8162;BME280;16778;48.154;15.094;2024-02-28T06:52:24;98927.94;;;6.09;100.00
8162;BME280;16778;48.154;15.094;2024-02-28T06:54:49;98924.88;;;6.12;100.00
8162;BME280;16778;48.154;15.094;2024-02-28T06:57:15;98940.50;;;6.17;100.00
8162;BME280;16778;48.154;15.094;2024-02-28T06:59:41;98932.88;;;6.20;100.00
8162;BME280;16778;48.154;15.094;2024-02-28T07:02:07;98945.53;;;6.20;100.00
8162;BME280;16778;48.154;15.094;2024-02-28T07:04:33;98947.66;;;6.24;100.00
8162;BME280;16778;48.154;15.094;2024-02-28T07:06:59;98944.81;;;6.26;100.00
8162;BME280;16778;48.154;15.094;2024-02-28T07:09:24;98951.50;;;6.30;100.00
8162;BME280;16778;48.154;15.094;2024-02-28T07:11:56;98963.13;;;6.30;100.00
8162;BME280;16778;48.154;15.094;2024-02-28T07:14:22;98956.16;;;6.36;100.00
8162;BME280;16778;48.154;15.094;2024-02-28T07:16:48;98970.91;;;6.40;100.00
8162;BME280;16778;48.154;15.094;2024-02-28T07:19:13;98973.81;;;6.38;100.00
8162;BME280;16778;48.154;15.094;2024-02-28T07:21:40;98972.44;;;6.43;100.00
8162;BME280;16778;48.154;15.094;2024-02-28T07:24:06;98977.47;;;6.46;100.00
8162;BME280;16778;48.154;15.094;2024-02-28T07:26:32;98976.41;;;6.47;100.00
8162;BME280;16778;48.154;15.094;2024-02-28T07:28:58;98982.75;;;6.54;100.00
8162;BME280;16778;48.154;15.094;2024-02-28T07:31:23;98986.75;;;6.58;100.00
8162;BME280;16778;48.154;15.094;2024-02-28T07:33:49;98986.75;;;6.58;100.00
8162;BME280;16778;48.154;15.094;2024-02-28T07:36:15;98984.25;;;6.56;100.00
8162;BME280;16778;48.154;15.094;2024-02-28T07:38:44;98998.00;;;6.61;100.00
8162;BME280;16778;48.154;15.094;2024-02-28T07:41:10;98992.63;;;6.61;100.00
8162;BME280;16778;48.154;15.094;2024-02-28T07:43:36;98997.44;;;6.66;100.00
8162;BME280;16778;48.154;15.094;2024-02-28T07:46:08;99009.72;;;6.68;100.00
8162;BME280;16778;48.154;15.094;2024-02-28T07:48:35;99009.34;;;6.71;100.00
8162;BME280;16778;48.154;15.094;2024-02-28T07:51:04;99007.88;;;6.69;100.00
8162;BME280;16778;48.154;15.094;2024-02-28T07:53:31;99014.31;;;6.68;100.00
8162;BME280;16778;48.154;15.094;2024-02-28T07:55:56;99012.25;;;6.70;100.00
8162;BME280;16778;48.154;15.094;2024-02-28T07:58:22;99021.00;;;6.72;100.00
8162;BME280;16778;48.154;15.094;2024-02-28T08:00:49;99014.38;;;6.74;100.00
8162;BME280;16778;48.154;15.094;2024-02-28T08:03:15;99019.03;;;6.80;100.00
8162;BME280;16778;48.154;15.094;2024-02-28T08:05:42;99019.69;;;6.82;100.00
8162;BME280;16778;48.154;15.094;2024-02-28T08:08:09;99024.28;;;6.82;100.00
8162;BME280;16778;48.154;15.094;2024-02-28T08:10:36;99030.59;;;6.89;100.00
8162;BME280;16778;48.154;15.094;2024-02-28T08:13:02;99021.16;;;6.85;100.00
8162;BME280;16778;48.154;15.094;2024-02-28T08:15:28;99021.16;;;6.85;100.00
8162;BME280;16778;48.154;15.094;2024-02-28T08:17:54;99018.47;;;6.85;100.00
8162;BME280;16778;48.154;15.094;2024-02-28T08:20:20;99018.94;;;6.88;100.00
8162;BME280;16778;48.154;15.094;2024-02-28T08:22:46;99024.34;;;6.88;100.00
8162;BME280;16778;48.154;15.094;2024-02-28T08:25:12;99019.78;;;6.89;100.00
8162;BME280;16778;48.154;15.094;2024-02-28T08:27:40;99022.94;;;6.92;100.00
8162;BME280;16778;48.154;15.094;2024-02-28T08:30:06;99031.31;;;6.97;100.00
8162;BME280;16778;48.154;15.094;2024-02-28T08:32:33;99035.97;;;7.04;100.00
8162;BME280;16778;48.154;15.094;2024-02-28T08:34:59;99027.84;;;7.18;100.00
8162;BME280;16778;48.154;15.094;2024-02-28T08:37:25;99033.38;;;7.10;100.00
8162;BME280;16778;48.154;15.094;2024-02-28T08:39:53;99046.75;;;7.18;100.00
8162;BME280;16778;48.154;15.094;2024-02-28T08:42:22;99043.75;;;7.28;100.00
8162;BME280;16778;48.154;15.094;2024-02-28T08:44:48;99050.94;;;7.35;100.00
8162;BME280;16778;48.154;15.094;2024-02-28T08:47:14;99055.13;;;7.38;100.00
8162;BME280;16778;48.154;15.094;2024-02-28T08:49:39;99061.88;;;7.48;100.00
8162;BME280;16778;48.154;15.094;2024-02-28T08:52:05;99058.13;;;7.49;100.00
8162;BME280;16778;48.154;15.094;2024-02-28T08:54:31;99063.44;;;7.57;100.00
8162;BME280;16778;48.154;15.094;2024-02-28T08:56:57;99070.78;;;7.64;100.00
8162;BME280;16778;48.154;15.094;2024-02-28T08:59:23;99064.47;;;7.78;100.00
8162;BME280;16778;48.154;15.094;2024-02-28T09:01:49;99071.41;;;7.80;100.00
8162;BME280;16778;48.154;15.094;2024-02-28T09:04:15;99074.59;;;7.90;100.00
8162;BME280;16778;48.154;15.094;2024-02-28T09:06:41;99086.69;;;7.94;100.00
8162;BME280;16778;48.154;15.094;2024-02-28T09:09:07;99086.69;;;7.94;100.00
8162;BME280;16778;48.154;15.094;2024-02-28T09:11:32;99087.16;;;7.98;100.00
8162;BME280;16778;48.154;15.094;2024-02-28T09:13:59;99095.72;;;8.01;100.00
8162;BME280;16778;48.154;15.094;2024-02-28T09:16:25;99097.09;;;8.12;100.00
8162;BME280;16778;48.154;15.094;2024-02-28T09:18:51;99100.09;;;8.24;100.00
8162;BME280;16778;48.154;15.094;2024-02-28T09:21:16;99105.06;;;8.20;100.00
8162;BME280;16778;48.154;15.094;2024-02-28T09:23:42;99105.25;;;8.33;100.00
8162;BME280;16778;48.154;15.094;2024-02-28T09:26:08;99113.75;;;8.30;100.00
8162;BME280;16778;48.154;15.094;2024-02-28T09:28:34;99109.34;;;8.29;100.00
8162;BME280;16778;48.154;15.094;2024-02-28T09:31:00;99106.16;;;8.26;100.00
8162;BME280;16778;48.154;15.094;2024-02-28T09:33:25;99102.56;;;8.18;100.00
8162;BME280;16778;48.154;15.094;2024-02-28T09:35:51;99111.47;;;8.34;100.00
8162;BME280;16778;48.154;15.094;2024-02-28T09:38:18;99112.84;;;8.44;100.00
8162;BME280;16778;48.154;15.094;2024-02-28T09:40:48;99113.53;;;8.53;100.00
8162;BME280;16778;48.154;15.094;2024-02-28T09:43:31;99118.56;;;8.56;100.00
8162;BME280;16778;48.154;15.094;2024-02-28T09:46:05;99124.84;;;8.63;100.00
8162;BME280;16778;48.154;15.094;2024-02-28T09:48:32;99114.34;;;8.53;100.00
8162;BME280;16778;48.154;15.094;2024-02-28T09:50:58;99120.66;;;8.60;100.00
8162;BME280;16778;48.154;15.094;2024-02-28T09:53:25;99124.13;;;8.76;100.00
8162;BME280;16778;48.154;15.094;2024-02-28T09:55:51;99127.41;;;8.71;100.00
8162;BME280;16778;48.154;15.094;2024-02-28T09:58:19;99124.75;;;8.78;100.00
8162;BME280;16778;48.154;15.094;2024-02-28T10:00:47;99132.75;;;8.86;100.00
8162;BME280;16778;48.154;15.094;2024-02-28T10:03:17;99125.44;;;8.86;100.00
8162;BME280;16778;48.154;15.094;2024-02-28T10:05:48;99134.66;;;8.92;100.00
8162;BME280;16778;48.154;15.094;2024-02-28T10:08:15;99127.25;;;9.07;100.00
8162;BME280;16778;48.154;15.094;2024-02-28T10:10:48;99132.94;;;9.12;100.00
8162;BME280;16778;48.154;15.094;2024-02-28T10:13:17;99134.88;;;9.24;100.00
8162;BME280;16778;48.154;15.094;2024-02-28T10:15:43;99148.06;;;9.34;100.00
8162;BME280;16778;48.154;15.094;2024-02-28T10:18:10;99139.38;;;9.45;100.00
8162;BME280;16778;48.154;15.094;2024-02-28T10:20:35;99137.09;;;9.49;100.00
8162;BME280;16778;48.154;15.094;2024-02-28T10:23:07;99141.50;;;9.56;100.00
8162;BME280;16778;48.154;15.094;2024-02-28T10:25:47;99138.22;;;9.67;100.00
8162;BME280;16778;48.154;15.094;2024-02-28T10:28:14;99136.53;;;9.66;100.00
8162;BME280;16778;48.154;15.094;2024-02-28T10:30:41;99132.38;;;9.70;100.00
8162;BME280;16778;48.154;15.094;2024-02-28T10:33:14;99125.78;;;9.93;100.00
8162;BME280;16778;48.154;15.094;2024-02-28T10:35:43;99131.47;;;10.04;100.00
8162;BME280;16778;48.154;15.094;2024-02-28T10:38:11;99124.94;;;9.92;100.00
8162;BME280;16778;48.154;15.094;2024-02-28T10:40:41;99134.38;;;10.03;100.00
8162;BME280;16778;48.154;15.094;2024-02-28T10:43:09;99127.50;;;10.07;100.00
8162;BME280;16778;48.154;15.094;2024-02-28T10:45:38;99122.53;;;10.17;100.00
8162;BME280;16778;48.154;15.094;2024-02-28T10:48:06;99133.78;;;10.14;100.00
8162;BME280;16778;48.154;15.094;2024-02-28T10:50:32;99130.53;;;10.58;100.00
8162;BME280;16778;48.154;15.094;2024-02-28T10:53:03;99125.53;;;10.74;100.00
8162;BME280;16778;48.154;15.094;2024-02-28T10:55:34;99129.06;;;10.55;100.00
8162;BME280;16778;48.154;15.094;2024-02-28T10:58:07;99132.19;;;10.32;100.00
8162;BME280;16778;48.154;15.094;2024-02-28T11:00:36;99125.72;;;10.46;100.00
8162;BME280;16778;48.154;15.094;2024-02-28T11:03:17;99130.09;;;10.67;100.00
8162;BME280;16778;48.154;15.094;2024-02-28T11:05:44;99132.00;;;10.60;100.00
8162;BME280;16778;48.154;15.094;2024-02-28T11:08:28;99142.44;;;10.57;100.00
8162;BME280;16778;48.154;15.094;2024-02-28T11:11:01;99135.53;;;10.67;100.00
8162;BME280;16778;48.154;15.094;2024-02-28T11:13:30;99131.78;;;10.88;100.00
8162;BME280;16778;48.154;15.094;2024-02-28T11:16:09;99130.94;;;10.87;100.00
8162;BME280;16778;48.154;15.094;2024-02-28T11:18:35;99131.97;;;10.34;100.00
8162;BME280;16778;48.154;15.094;2024-02-28T11:21:01;99130.94;;;10.68;100.00
8162;BME280;16778;48.154;15.094;2024-02-28T11:23:36;99134.91;;;10.59;100.00
8162;BME280;16778;48.154;15.094;2024-02-28T11:26:03;99126.50;;;10.27;100.00
8162;BME280;16778;48.154;15.094;2024-02-28T11:28:29;99128.81;;;10.24;100.00
8162;BME280;16778;48.154;15.094;2024-02-28T11:30:55;99131.13;;;10.40;100.00
8162;BME280;16778;48.154;15.094;2024-02-28T11:33:21;99135.94;;;10.31;100.00
8162;BME280;16778;48.154;15.094;2024-02-28T11:35:58;99131.78;;;10.55;100.00
8162;BME280;16778;48.154;15.094;2024-02-28T11:38:27;99143.66;;;10.47;100.00
8162;BME280;16778;48.154;15.094;2024-02-28T11:40:54;99132.41;;;10.44;100.00
8162;BME280;16778;48.154;15.094;2024-02-28T11:43:21;99133.84;;;10.27;100.00
8162;BME280;16778;48.154;15.094;2024-02-28T11:45:47;99133.38;;;10.10;100.00
8162;BME280;16778;48.154;15.094;2024-02-28T11:48:16;99131.94;;;10.14;100.00
8162;BME280;16778;48.154;15.094;2024-02-28T11:50:42;99133.88;;;10.46;100.00
8162;BME280;16778;48.154;15.094;2024-02-28T11:53:08;99131.13;;;10.53;100.00
8162;BME280;16778;48.154;15.094;2024-02-28T11:55:35;99133.22;;;10.38;100.00
8162;BME280;16778;48.154;15.094;2024-02-28T11:58:01;99132.81;;;10.54;100.00
8162;BME280;16778;48.154;15.094;2024-02-28T12:00:27;99123.81;;;10.47;100.00
8162;BME280;16778;48.154;15.094;2024-02-28T12:03:04;99121.75;;;10.42;100.00
8162;BME280;16778;48.154;15.094;2024-02-28T12:05:30;99123.78;;;10.27;100.00
8162;BME280;16778;48.154;15.094;2024-02-28T12:07:56;99121.50;;;10.31;100.00
8162;BME280;16778;48.154;15.094;2024-02-28T12:10:25;99116.50;;;10.28;100.00
8162;BME280;16778;48.154;15.094;2024-02-28T12:12:50;99125.00;;;10.12;100.00
8162;BME280;16778;48.154;15.094;2024-02-28T12:15:16;99109.00;;;10.43;100.00
8162;BME280;16778;48.154;15.094;2024-02-28T12:17:43;99111.69;;;10.23;100.00
8162;BME280;16778;48.154;15.094;2024-02-28T12:20:09;99108.78;;;10.31;100.00
8162;BME280;16778;48.154;15.094;2024-02-28T12:22:35;99111.28;;;10.39;100.00
8162;BME280;16778;48.154;15.094;2024-02-28T12:25:01;99109.63;;;10.38;100.00
8162;BME280;16778;48.154;15.094;2024-02-28T12:27:30;99117.56;;;10.27;100.00
8162;BME280;16778;48.154;15.094;2024-02-28T12:29:58;99112.94;;;10.34;100.00
8162;BME280;16778;48.154;15.094;2024-02-28T12:32:24;99113.78;;;10.21;100.00
8162;BME280;16778;48.154;15.094;2024-02-28T12:34:50;99109.19;;;10.28;100.00
8162;BME280;16778;48.154;15.094;2024-02-28T12:37:16;99105.84;;;10.39;100.00
8162;BME280;16778;48.154;15.094;2024-02-28T12:39:42;99105.44;;;10.42;100.00
8162;BME280;16778;48.154;15.094;2024-02-28T12:42:08;99104.81;;;10.40;100.00
8162;BME280;16778;48.154;15.094;2024-02-28T12:44:34;99103.38;;;10.38;100.00
8162;BME280;16778;48.154;15.094;2024-02-28T12:47:00;99097.72;;;10.33;100.00
8162;BME280;16778;48.154;15.094;2024-02-28T12:49:25;99104.81;;;10.34;100.00
8162;BME280;16778;48.154;15.094;2024-02-28T12:51:51;99105.03;;;10.45;100.00
8162;BME280;16778;48.154;15.094;2024-02-28T12:54:17;99108.78;;;10.44;100.00
8162;BME280;16778;48.154;15.094;2024-02-28T12:56:46;99096.88;;;10.39;100.00